createdAt,value
2023-06-02T00:02:02.390Z,1.13
2023-06-02T00:04:30.954Z,0.88
2023-06-02T00:07:04.463Z,0.00
2023-06-02T00:09:37.367Z,0.63
2023-06-02T00:12:04.778Z,0.43
2023-06-02T00:14:32.176Z,0.28
2023-06-02T00:17:02.135Z,0.65
2023-06-02T00:19:32.707Z,0.40
2023-06-02T00:22:00.385Z,0.77
2023-06-02T00:24:27.820Z,0.68
2023-06-02T00:26:55.208Z,0.35
2023-06-02T00:29:22.237Z,1.13
2023-06-02T00:31:49.809Z,1.05
2023-06-02T00:34:16.983Z,1.83
2023-06-02T00:36:44.369Z,1.23
2023-06-02T00:39:13.969Z,1.17
2023-06-02T00:41:42.992Z,0.77
2023-06-02T00:44:10.028Z,1.55
2023-06-02T00:46:38.235Z,0.32
2023-06-02T00:49:05.958Z,1.40
2023-06-02T00:51:33.677Z,1.08
2023-06-02T00:54:01.144Z,0.88
2023-06-02T00:56:29.018Z,0.70
2023-06-02T00:58:56.437Z,1.75
2023-06-02T01:01:24.412Z,1.95
2023-06-02T01:03:52.165Z,0.00
2023-06-02T01:06:24.572Z,0.57
2023-06-02T01:08:53.259Z,1.60
2023-06-02T01:11:21.522Z,1.42
2023-06-02T01:13:50.253Z,0.10
2023-06-02T01:16:17.901Z,1.85
2023-06-02T01:18:46.632Z,1.65
2023-06-02T01:21:22.906Z,0.47
2023-06-02T01:24:00.675Z,0.82
2023-06-02T01:26:33.234Z,0.40
2023-06-02T01:29:00.582Z,1.25
2023-06-02T01:31:32.296Z,1.02
2023-06-02T01:34:14.740Z,1.13
2023-06-02T01:36:42.587Z,0.63
2023-06-02T01:39:11.103Z,1.35
2023-06-02T01:41:43.576Z,0.60
2023-06-02T01:44:11.246Z,0.65
2023-06-02T01:46:41.004Z,1.25
2023-06-02T01:49:16.517Z,1.65
2023-06-02T01:51:44.135Z,0.30
2023-06-02T01:54:11.843Z,1.80
2023-06-02T01:56:38.917Z,0.75
2023-06-02T01:59:06.324Z,0.50
2023-06-02T02:01:35.277Z,0.55
2023-06-02T02:06:31.097Z,1.23
2023-06-02T02:08:59.066Z,1.45
2023-06-02T02:11:27.826Z,0.70
2023-06-02T02:13:58.193Z,1.42
2023-06-02T02:16:25.726Z,1.08
2023-06-02T02:18:57.565Z,0.85
2023-06-02T02:21:27.524Z,1.60
2023-06-02T02:23:55.745Z,0.98
2023-06-02T02:26:23.186Z,1.17
2023-06-02T02:28:50.571Z,0.73
2023-06-02T02:31:18.524Z,0.30
2023-06-02T02:33:45.816Z,0.13
2023-06-02T02:36:14.091Z,1.40
2023-06-02T02:38:41.620Z,0.47
2023-06-02T02:41:09.017Z,0.90
2023-06-02T02:43:36.482Z,1.35
2023-06-02T02:46:04.175Z,0.77
2023-06-02T02:48:31.872Z,1.30
2023-06-02T02:50:59.246Z,1.42
2023-06-02T02:53:32.475Z,0.95
2023-06-02T02:56:00.226Z,0.80
2023-06-02T02:58:27.920Z,1.38
2023-06-02T03:00:55.331Z,0.25
2023-06-02T03:03:22.778Z,1.17
2023-06-02T03:05:50.919Z,0.88
2023-06-02T03:08:18.967Z,1.13
2023-06-02T03:10:46.894Z,1.30
2023-06-02T03:13:14.303Z,0.90
2023-06-02T03:15:43.408Z,0.90
2023-06-02T03:18:12.393Z,1.40
2023-06-02T03:20:39.600Z,1.85
2023-06-02T03:23:07.061Z,0.55
2023-06-02T03:25:35.422Z,0.50
2023-06-02T03:28:03.637Z,0.88
2023-06-02T03:30:31.681Z,0.57
2023-06-02T03:32:59.176Z,1.20
2023-06-02T03:35:26.620Z,0.43
2023-06-02T03:37:54.046Z,2.53
2023-06-02T03:40:21.429Z,0.82
2023-06-02T03:42:49.001Z,0.95
2023-06-02T03:45:16.450Z,0.30
2023-06-02T03:47:43.913Z,1.17
2023-06-02T03:50:11.728Z,1.48
2023-06-02T03:52:39.117Z,0.43
2023-06-02T03:55:06.830Z,1.20
2023-06-02T03:57:34.176Z,1.02
2023-06-02T04:00:01.229Z,1.38
2023-06-02T04:02:28.648Z,0.32
2023-06-02T04:04:57.977Z,0.63
2023-06-02T04:07:25.618Z,0.57
2023-06-02T04:09:53.029Z,1.40
2023-06-02T04:12:20.493Z,1.08
2023-06-02T04:14:47.937Z,0.30
2023-06-02T04:17:15.517Z,1.05
2023-06-02T04:19:44.415Z,0.30
2023-06-02T04:22:12.531Z,1.77
2023-06-02T04:24:42.410Z,2.42
2023-06-02T04:27:09.817Z,3.10
2023-06-02T04:29:38.406Z,0.88
2023-06-02T04:32:05.982Z,1.50
2023-06-02T04:34:33.403Z,0.95
2023-06-02T04:37:01.203Z,0.30
2023-06-02T04:39:28.577Z,0.55
2023-06-02T04:41:58.818Z,1.67
2023-06-02T04:44:26.277Z,0.77
2023-06-02T04:46:53.799Z,2.20
2023-06-02T04:49:21.246Z,3.03
2023-06-02T04:51:48.814Z,0.75
2023-06-02T04:54:16.767Z,0.32
2023-06-02T04:56:44.205Z,0.82
2023-06-02T04:59:13.306Z,2.42
2023-06-02T05:01:40.973Z,0.93
2023-06-02T05:04:08.474Z,0.77
2023-06-02T05:06:36.037Z,1.15
2023-06-02T05:09:03.645Z,0.80
2023-06-02T05:11:31.090Z,1.55
2023-06-02T05:13:58.063Z,1.35
2023-06-02T05:16:25.754Z,1.55
2023-06-02T05:18:53.235Z,1.70
2023-06-02T05:21:20.662Z,2.83
2023-06-02T05:23:48.078Z,5.82
2023-06-02T05:26:16.349Z,7.38
2023-06-02T05:28:43.774Z,11.70
2023-06-02T05:31:12.194Z,7.25
2023-06-02T05:33:39.751Z,5.90
2023-06-02T05:36:07.005Z,5.55
2023-06-02T05:38:34.397Z,3.90
2023-06-02T05:41:01.777Z,5.18
2023-06-02T05:43:29.317Z,2.97
2023-06-02T05:45:56.799Z,2.28
2023-06-02T05:48:25.015Z,1.88
2023-06-02T05:50:52.186Z,2.35
2023-06-02T05:53:19.217Z,1.00
2023-06-02T05:55:46.847Z,0.85
2023-06-02T05:58:14.200Z,0.85
2023-06-02T06:00:41.218Z,0.80
2023-06-02T06:03:08.352Z,1.42
2023-06-02T06:05:35.546Z,2.25
2023-06-02T06:08:02.593Z,1.00
2023-06-02T06:10:29.656Z,0.98
2023-06-02T06:12:57.126Z,1.30
2023-06-02T06:15:24.160Z,0.88
2023-06-02T06:17:53.051Z,0.75
2023-06-02T06:20:20.667Z,1.58
2023-06-02T06:22:47.909Z,1.45
2023-06-02T06:25:14.949Z,1.00
2023-06-02T06:27:42.325Z,0.60
2023-06-02T06:30:09.735Z,1.10
2023-06-02T06:32:37.059Z,0.55
2023-06-02T06:35:04.285Z,0.30
2023-06-02T06:37:31.739Z,0.90
2023-06-02T06:39:58.688Z,2.00
2023-06-02T06:42:25.654Z,1.13
2023-06-02T06:44:53.077Z,1.55
2023-06-02T06:47:20.884Z,0.60
2023-06-02T06:49:48.544Z,0.63
2023-06-02T06:52:15.908Z,1.10
2023-06-02T06:54:42.906Z,1.08
2023-06-02T06:57:11.300Z,0.47
2023-06-02T06:59:41.553Z,0.45
2023-06-02T07:02:08.870Z,0.20
2023-06-02T07:04:36.891Z,0.43
2023-06-02T07:07:04.376Z,0.65
2023-06-02T07:09:31.765Z,0.68
2023-06-02T07:11:59.405Z,0.08
2023-06-02T07:14:28.459Z,0.32
2023-06-02T07:16:56.288Z,1.02
2023-06-02T07:19:23.343Z,0.77
2023-06-02T07:21:53.071Z,0.77
2023-06-02T07:24:20.176Z,0.20
2023-06-02T07:26:47.413Z,0.32
2023-06-02T07:29:16.144Z,0.88
2023-06-02T07:31:47.531Z,0.10
2023-06-02T07:34:14.730Z,1.45
2023-06-02T07:36:42.822Z,0.40
2023-06-02T07:39:10.178Z,0.80
2023-06-02T07:41:37.517Z,0.38
2023-06-02T07:44:04.541Z,0.98
2023-06-02T07:46:31.765Z,0.35
2023-06-02T07:48:59.328Z,1.48
2023-06-02T07:51:26.406Z,0.82
2023-06-02T07:53:53.391Z,0.95
2023-06-02T07:56:20.437Z,0.50
2023-06-02T07:58:47.799Z,0.40
2023-06-02T08:01:17.329Z,0.75
2023-06-02T08:03:45.085Z,0.35
2023-06-02T08:06:12.294Z,0.25
2023-06-02T08:08:39.290Z,0.88
2023-06-02T08:11:06.498Z,1.02
2023-06-02T08:13:33.723Z,0.80
2023-06-02T08:16:20.425Z,0.38
2023-06-02T08:18:49.498Z,0.93
2023-06-02T08:21:16.633Z,0.50
2023-06-02T08:23:44.478Z,0.55
2023-06-02T08:26:11.862Z,0.50
2023-06-02T08:28:40.238Z,0.57
2023-06-02T08:31:07.319Z,0.70
2023-06-02T08:33:36.462Z,1.35
2023-06-02T08:36:04.262Z,1.00
2023-06-02T08:38:31.412Z,1.17
2023-06-02T08:40:59.204Z,0.35
2023-06-02T08:43:26.522Z,0.77
2023-06-02T08:45:56.581Z,0.55
2023-06-02T08:48:24.135Z,0.57
2023-06-02T08:50:55.476Z,0.73
2023-06-02T08:53:25.326Z,0.68
2023-06-02T08:55:53.302Z,0.20
2023-06-02T08:58:20.516Z,0.52
2023-06-02T09:00:49.901Z,1.23
2023-06-02T09:05:47.296Z,0.65
2023-06-02T09:08:16.170Z,0.70
2023-06-02T09:10:45.692Z,0.22
2023-06-02T09:13:33.178Z,1.60
2023-06-02T09:16:02.334Z,0.13
2023-06-02T09:18:29.918Z,0.20
2023-06-02T09:21:01.233Z,1.50
2023-06-02T09:23:53.986Z,0.73
2023-06-02T09:26:27.806Z,0.98
2023-06-02T09:29:13.801Z,0.25
2023-06-02T09:31:53.010Z,0.40
2023-06-02T09:34:22.404Z,0.65
2023-06-02T09:36:54.753Z,0.55
2023-06-02T09:39:34.366Z,0.38
2023-06-02T09:42:01.852Z,0.22
2023-06-02T09:44:30.237Z,2.45
2023-06-02T09:46:57.761Z,0.55
2023-06-02T09:49:25.322Z,1.00
2023-06-02T09:51:52.530Z,1.38
2023-06-02T09:54:19.965Z,0.65
2023-06-02T09:56:47.912Z,0.65
2023-06-02T09:59:16.972Z,0.52
2023-06-02T10:01:44.133Z,0.82
2023-06-02T10:04:12.512Z,0.20
2023-06-02T10:07:07.762Z,0.52
2023-06-02T10:09:51.558Z,0.10
2023-06-02T10:12:43.105Z,1.23
2023-06-02T10:15:34.219Z,0.80
2023-06-02T10:18:34.225Z,1.83
2023-06-02T10:21:33.153Z,0.20
2023-06-02T10:24:32.793Z,0.70
2023-06-02T10:27:09.090Z,0.65
2023-06-02T10:29:37.240Z,1.92
2023-06-02T10:32:29.901Z,0.00
2023-06-02T10:34:58.914Z,0.60
2023-06-02T10:37:26.397Z,0.30
2023-06-02T10:39:59.458Z,0.75
2023-06-02T10:42:28.260Z,0.57
2023-06-02T10:45:18.094Z,0.65
2023-06-02T10:47:47.297Z,0.77
2023-06-02T10:50:26.234Z,1.05
2023-06-02T10:53:02.490Z,0.95
2023-06-02T10:55:31.643Z,0.70
2023-06-02T10:58:04.457Z,0.63
2023-06-02T11:00:32.574Z,0.40
2023-06-02T11:03:04.390Z,1.17
2023-06-02T11:05:32.350Z,0.45
2023-06-02T11:08:15.602Z,0.20
2023-06-02T11:10:45.320Z,0.40
2023-06-02T11:13:16.711Z,1.35
2023-06-02T11:16:07.895Z,0.20
2023-06-02T11:18:35.408Z,0.65
2023-06-02T11:21:18.708Z,0.30
2023-06-02T11:23:53.710Z,0.30
2023-06-02T11:26:22.583Z,0.08
2023-06-02T11:28:50.145Z,0.10
2023-06-02T11:31:19.277Z,0.45
2023-06-02T11:44:51.542Z,0.65
2023-06-02T11:47:22.552Z,0.43
2023-06-02T11:49:50.272Z,0.55
2023-06-02T11:52:20.001Z,1.23
2023-06-02T11:54:54.238Z,1.20
2023-06-02T11:57:32.056Z,1.20
2023-06-02T12:00:17.759Z,0.20
2023-06-02T12:02:51.628Z,0.28
2023-06-02T12:05:33.027Z,0.50
2023-06-02T12:08:13.594Z,0.20
2023-06-02T12:10:41.696Z,0.43
2023-06-02T12:13:09.214Z,0.93
2023-06-02T12:15:37.010Z,1.10
2023-06-02T12:18:08.217Z,0.20
2023-06-02T12:20:36.882Z,0.40
2023-06-02T12:23:04.341Z,0.10
2023-06-02T12:25:31.766Z,0.28
2023-06-02T12:28:06.232Z,0.00
2023-06-02T12:30:33.423Z,0.38
2023-06-02T12:33:11.207Z,0.22
2023-06-02T12:35:39.361Z,0.30
2023-06-02T12:38:07.467Z,0.40
2023-06-02T12:40:34.896Z,0.30
2023-06-02T12:43:02.383Z,0.13
2023-06-02T12:45:29.985Z,0.43
2023-06-02T12:47:58.426Z,0.57
2023-06-02T12:50:26.289Z,0.43
2023-06-02T12:52:53.730Z,0.05
2023-06-02T12:55:21.117Z,0.43
2023-06-02T12:57:48.492Z,0.75
2023-06-02T13:00:16.836Z,0.45
2023-06-02T13:02:46.126Z,0.63
2023-06-02T13:05:13.926Z,0.50
2023-06-02T13:07:41.967Z,0.00
2023-06-02T13:10:10.841Z,0.52
2023-06-02T13:12:40.193Z,0.35
2023-06-02T13:15:08.029Z,0.70
2023-06-02T13:17:35.677Z,0.73
2023-06-02T13:20:03.964Z,0.35
2023-06-02T13:22:31.454Z,0.32
2023-06-02T13:24:59.974Z,0.25
2023-06-02T13:30:10.425Z,0.13
2023-06-02T13:32:37.915Z,0.55
2023-06-02T13:35:05.613Z,0.77
2023-06-02T13:37:35.100Z,0.70
2023-06-02T13:40:03.575Z,1.15
2023-06-02T13:42:32.456Z,0.30
2023-06-02T13:44:59.923Z,0.40
2023-06-02T13:47:27.494Z,0.73
2023-06-02T13:49:54.900Z,0.40
2023-06-02T13:52:22.340Z,0.82
2023-06-02T13:54:49.627Z,0.20
2023-06-02T13:57:17.483Z,0.25
2023-06-02T13:59:44.930Z,0.30
2023-06-02T14:02:12.536Z,0.40
2023-06-02T14:04:41.202Z,0.93
2023-06-02T14:09:35.978Z,0.80
2023-06-02T14:12:03.453Z,0.90
2023-06-02T14:14:32.613Z,0.52
2023-06-02T14:17:00.182Z,0.93
2023-06-02T14:19:27.666Z,1.23
2023-06-02T14:21:55.201Z,0.65
2023-06-02T14:24:22.705Z,0.10
2023-06-02T14:26:51.664Z,0.20
2023-06-02T14:29:19.287Z,0.52
2023-06-02T14:31:46.910Z,0.03
2023-06-02T14:34:14.700Z,0.47
2023-06-02T14:36:42.145Z,0.80
2023-06-02T14:39:09.609Z,0.57
2023-06-02T14:41:37.067Z,0.00
2023-06-02T14:44:04.449Z,0.30
2023-06-02T14:46:32.126Z,0.55
2023-06-02T14:48:59.707Z,0.22
2023-06-02T14:51:27.100Z,0.65
2023-06-02T14:53:56.046Z,0.73
2023-06-02T14:56:23.867Z,0.68
2023-06-02T14:59:06.648Z,0.82
2023-06-02T15:01:38.415Z,0.30
2023-06-02T15:04:06.138Z,0.08
2023-06-02T15:06:33.764Z,0.38
2023-06-02T15:09:01.357Z,0.00
2023-06-02T15:11:29.277Z,0.47
2023-06-02T15:13:56.694Z,0.53
2023-06-02T15:16:24.206Z,0.10
2023-06-02T15:18:54.771Z,0.38
2023-06-02T15:21:23.120Z,0.63
2023-06-02T15:23:50.591Z,0.73
2023-06-02T15:26:18.022Z,0.25
2023-06-02T15:28:46.502Z,0.52
2023-06-02T15:31:14.021Z,0.00
2023-06-02T15:33:42.835Z,0.30
2023-06-02T15:36:10.342Z,0.00
2023-06-02T15:38:37.811Z,0.15
2023-06-02T15:41:05.209Z,0.22
2023-06-02T15:43:32.693Z,0.77
2023-06-02T15:46:00.237Z,0.25
2023-06-02T15:48:27.630Z,0.75
2023-06-02T15:50:55.067Z,0.85
2023-06-02T15:53:22.539Z,0.10
2023-06-02T15:55:49.959Z,0.10
2023-06-02T15:58:17.384Z,1.02
2023-06-02T16:00:44.853Z,0.90
2023-06-02T16:03:12.333Z,1.23
2023-06-02T16:05:40.081Z,0.68
2023-06-02T16:08:07.563Z,1.20
2023-06-02T16:10:35.068Z,0.80
2023-06-02T16:13:02.511Z,0.20
2023-06-02T16:15:31.149Z,0.30
2023-06-02T16:20:26.129Z,0.25
2023-06-02T16:22:53.560Z,0.43
2023-06-02T16:25:22.310Z,0.28
2023-06-02T16:27:50.628Z,0.63
2023-06-02T16:30:18.054Z,0.38
2023-06-02T16:32:46.302Z,0.32
2023-06-02T16:35:13.828Z,0.60
2023-06-02T16:37:41.333Z,0.30
2023-06-02T16:40:09.106Z,0.70
2023-06-02T16:42:36.637Z,0.00
2023-06-02T16:45:04.138Z,0.43
2023-06-02T16:47:32.842Z,0.40
2023-06-02T16:50:00.418Z,0.68
2023-06-02T16:52:28.216Z,0.98
2023-06-02T16:54:55.891Z,0.85
2023-06-02T16:57:23.394Z,0.73
2023-06-02T16:59:51.067Z,0.00
2023-06-02T17:02:18.439Z,0.52
2023-06-02T17:04:45.671Z,0.75
2023-06-02T17:07:13.067Z,1.13
2023-06-02T17:09:40.568Z,0.20
2023-06-02T17:12:08.398Z,0.28
2023-06-02T17:14:36.354Z,0.50
2023-06-02T17:17:04.333Z,0.77
2023-06-02T17:19:31.862Z,0.25
2023-06-02T17:21:59.741Z,1.17
2023-06-02T17:24:27.717Z,0.40
2023-06-02T17:26:55.071Z,1.10
2023-06-02T17:29:22.520Z,0.68
2023-06-02T17:31:49.998Z,0.32
2023-06-02T17:34:17.448Z,1.00
2023-06-02T17:36:44.900Z,0.45
2023-06-02T17:39:12.553Z,0.47
2023-06-02T17:41:39.966Z,0.45
2023-06-02T17:44:07.427Z,0.22
2023-06-02T17:46:34.941Z,1.00
2023-06-02T17:49:02.370Z,0.57
2023-06-02T17:51:29.912Z,0.50
2023-06-02T17:53:57.300Z,0.80
2023-06-02T17:56:24.541Z,0.98
2023-06-02T17:58:52.722Z,0.45
2023-06-02T18:01:19.802Z,0.22
2023-06-02T18:03:47.374Z,1.00
2023-06-02T18:06:14.529Z,0.88
2023-06-02T18:08:42.281Z,0.55
2023-06-02T18:11:10.506Z,0.47
2023-06-02T18:13:38.047Z,0.52
2023-06-02T18:16:05.600Z,0.82
2023-06-02T18:18:33.214Z,1.00
2023-06-02T18:21:00.758Z,0.10
2023-06-02T18:23:28.262Z,1.38
2023-06-02T18:25:55.734Z,0.82
2023-06-02T18:28:23.286Z,0.68
2023-06-02T18:30:50.831Z,0.60
2023-06-02T18:33:18.340Z,0.88
2023-06-02T18:35:46.007Z,0.30
2023-06-02T18:38:13.758Z,0.45
2023-06-02T18:40:40.824Z,1.85
2023-06-02T18:43:09.103Z,0.55
2023-06-02T18:45:38.743Z,1.45
2023-06-02T18:48:06.678Z,0.45
2023-06-02T18:50:34.141Z,0.77
2023-06-02T18:53:01.889Z,0.85
2023-06-02T18:55:29.346Z,0.40
2023-06-02T18:57:56.830Z,0.65
2023-06-02T19:00:24.268Z,0.77
2023-06-02T19:02:52.115Z,0.98
2023-06-02T19:05:19.575Z,0.63
2023-06-02T19:07:47.015Z,0.38
2023-06-02T19:10:16.680Z,2.38
2023-06-02T19:12:44.125Z,0.85
2023-06-02T19:15:12.289Z,0.65
2023-06-02T19:17:40.207Z,0.68
2023-06-02T19:20:08.702Z,0.50
2023-06-02T19:22:39.289Z,0.20
2023-06-02T19:25:07.954Z,0.20
2023-06-02T19:27:36.254Z,0.47
2023-06-02T19:30:03.783Z,0.30
2023-06-02T19:32:31.579Z,1.40
2023-06-02T19:34:58.990Z,0.20
2023-06-02T19:37:26.765Z,1.23
2023-06-02T19:39:54.149Z,0.95
2023-06-02T19:42:45.752Z,1.33
2023-06-02T19:45:16.226Z,0.45
2023-06-02T19:47:43.714Z,2.22
2023-06-02T19:50:12.106Z,0.30
2023-06-02T19:52:39.663Z,0.73
2023-06-02T19:55:07.505Z,0.63
2023-06-02T19:57:35.067Z,0.77
2023-06-02T20:00:04.644Z,1.60
2023-06-02T20:02:32.197Z,0.57
2023-06-02T20:04:59.693Z,0.40
2023-06-02T20:07:27.462Z,0.73
2023-06-02T20:09:54.922Z,0.80
2023-06-02T20:12:22.412Z,1.23
2023-06-02T20:14:50.097Z,1.65
2023-06-02T20:17:17.710Z,1.02
2023-06-02T20:19:45.503Z,1.08
2023-06-02T20:22:12.922Z,1.17
2023-06-02T20:24:40.293Z,0.35
2023-06-02T20:27:07.832Z,0.65
2023-06-02T20:29:35.766Z,0.85
2023-06-02T20:32:03.302Z,1.03
2023-06-02T20:34:30.953Z,1.33
2023-06-02T20:36:58.520Z,1.65
2023-06-02T20:39:25.952Z,1.38
2023-06-02T20:41:53.661Z,0.52
2023-06-02T20:44:21.571Z,0.73
2023-06-02T20:46:49.508Z,1.90
2023-06-02T20:49:17.006Z,0.27
2023-06-02T20:51:44.449Z,1.33
2023-06-02T20:54:11.898Z,0.30
2023-06-02T20:56:39.398Z,1.08
2023-06-02T20:59:06.874Z,0.60
2023-06-02T21:01:52.913Z,0.73
2023-06-02T21:04:20.572Z,0.68
2023-06-02T21:06:47.933Z,1.98
2023-06-02T21:09:15.350Z,0.82
2023-06-02T21:11:42.856Z,0.93
2023-06-02T21:14:10.715Z,0.65
2023-06-02T21:16:40.753Z,0.93
2023-06-02T21:19:08.164Z,0.28
2023-06-02T21:21:35.585Z,1.20
2023-06-02T21:24:03.063Z,1.30
2023-06-02T21:26:30.858Z,1.23
2023-06-02T21:28:58.218Z,0.73
2023-06-02T21:31:25.761Z,0.22
2023-06-02T21:33:53.244Z,0.60
2023-06-02T21:36:22.732Z,0.40
2023-06-02T21:38:50.235Z,0.88
2023-06-02T21:41:18.034Z,0.20
2023-06-02T21:43:45.455Z,0.20
2023-06-02T21:46:13.865Z,1.15
2023-06-02T21:48:41.362Z,0.30
2023-06-02T21:51:09.306Z,1.05
2023-06-02T21:53:36.692Z,1.10
2023-06-02T21:56:04.104Z,0.55
2023-06-02T21:58:31.559Z,0.35
2023-06-02T22:00:59.074Z,0.28
2023-06-02T22:03:26.623Z,1.08
2023-06-02T22:05:54.205Z,1.08
2023-06-02T22:08:21.596Z,0.70
2023-06-02T22:10:49.335Z,0.38
2023-06-02T22:13:17.406Z,0.98
2023-06-02T22:15:45.069Z,0.70
2023-06-02T22:18:12.666Z,0.22
2023-06-02T22:20:40.123Z,0.17
2023-06-02T22:23:07.521Z,0.40
2023-06-02T22:25:34.934Z,0.57
2023-06-02T22:28:02.435Z,0.75
2023-06-02T22:30:29.826Z,0.10
2023-06-02T22:32:57.320Z,0.30
2023-06-02T22:35:24.773Z,1.42
2023-06-02T22:37:52.229Z,0.43
2023-06-02T22:40:19.682Z,1.42
2023-06-02T22:42:47.161Z,0.52
2023-06-02T22:45:14.664Z,0.32
2023-06-02T22:47:42.132Z,0.43
2023-06-02T22:50:09.928Z,0.10
2023-06-02T22:52:37.332Z,0.10
2023-06-02T22:55:05.570Z,1.05
2023-06-02T22:57:33.084Z,1.27
2023-06-02T23:00:00.548Z,0.10
2023-06-02T23:02:28.030Z,0.20
2023-06-02T23:04:55.458Z,0.85
2023-06-02T23:07:22.993Z,0.80
2023-06-02T23:09:51.652Z,1.85
2023-06-02T23:12:19.230Z,0.30
2023-06-02T23:14:48.888Z,0.80
2023-06-02T23:17:20.023Z,0.82
2023-06-02T23:19:47.446Z,0.85
2023-06-02T23:22:14.971Z,1.63
2023-06-02T23:24:42.410Z,0.43
2023-06-02T23:27:09.868Z,0.98
2023-06-02T23:29:37.301Z,0.35
2023-06-02T23:32:04.964Z,1.30
2023-06-02T23:34:32.543Z,0.30
2023-06-02T23:36:59.928Z,0.75
2023-06-02T23:39:27.320Z,1.70
2023-06-02T23:41:54.777Z,0.65
2023-06-02T23:44:22.423Z,1.13
2023-06-02T23:46:49.824Z,0.47
2023-06-02T23:49:17.236Z,1.40
2023-06-02T23:51:44.989Z,1.08
2023-06-02T23:54:12.423Z,0.35
2023-06-02T23:56:39.820Z,0.50
2023-06-02T23:59:07.321Z,0.00
